44.2°F
Current conditions from King Hill
Updated every 5 minutes
 
  Wednesday April 23, 2014

Station Historical Data
Daily Summary for July 16, 2012 Units:  Both    English   Metric
« Previous Day
Next Day »
Daily Weekly Monthly Yearly Custom
  High: Low: Average:
Temperature: 84.3 °F /  29.1 °C 65.3 °F /  18.5 °C 73.1 °F /  22.8 °C
Dew Point: 72.2 °F /  22.3 °C 63.1 °F /  17.3 °C 67.5 °F /  19.7 °C
Humidity: 97% 64% 84%
Wind Speed: 5.0mph /  8km/h - 1.9mph /  3.1km/h
Wind Gust: 15.0mph /  24.1km/h - -
Wind- - West
Pressure: 29.83 in /  1010 hPa 29.73 in /  1006.7 hPa -
Precipitation: 0.02 in /  0.5 mm    
Historical Graphs
 
 
Tabular Data for July 16, 2012
Time Temperature Dew Point Pressure Wind Wind Speed Wind Gust Humidity Daily Rainfall
00:00 68.2 °F /  20.1 °C 66.4 °F /  19.1 °C 29.83in /  1010hPa Calm     94% 0.01in /  0.3mm
00:05 68.1 °F /  20.1 °C 66.3 °F /  19.1 °C 29.82in /  1009.7hPa Calm     94% 0.00in /  0mm
00:15 68.0 °F /  20 °C 66.5 °F /  19.2 °C 29.82in /  1009.7hPa Calm     95% 0.01in /  0.3mm
00:20 68.0 °F /  20 °C 66.5 °F /  19.2 °C 29.82in /  1009.7hPa Calm     95% 0.01in /  0.3mm
00:24 67.9 °F /  19.9 °C 66.4 °F /  19.1 °C 29.82in /  1009.7hPa Calm     95% 0.01in /  0.3mm
00:30 67.7 °F /  19.8 °C 66.2 °F /  19 °C 29.82in /  1009.7hPa Calm     95% 0.01in /  0.3mm
00:34 67.6 °F /  19.8 °C 66.1 °F /  18.9 °C 29.82in /  1009.7hPa Calm     95% 0.01in /  0.3mm
00:40 67.5 °F /  19.7 °C 66.0 °F /  18.9 °C 29.83in /  1010hPa Calm     95% 0.01in /  0.3mm
00:45 67.7 °F /  19.8 °C 66.2 °F /  19 °C 29.83in /  1010hPa Calm   1.0mph /  1.6km/h 95% 0.01in /  0.3mm
00:49 68.0 °F /  20 °C 66.5 °F /  19.2 °C 29.83in /  1010hPa Calm   1.0mph /  1.6km/h 95% 0.01in /  0.3mm
00:55 68.1 °F /  20.1 °C 66.6 °F /  19.2 °C 29.83in /  1010hPa Calm     95% 0.01in /  0.3mm
01:00 68.1 °F /  20.1 °C 66.6 °F /  19.2 °C 29.82in /  1009.7hPa Calm     95% 0.01in /  0.3mm
01:05 68.1 °F /  20.1 °C 66.6 °F /  19.2 °C 29.83in /  1010hPa Calm     95% 0.01in /  0.3mm
01:10 68.1 °F /  20.1 °C 66.6 °F /  19.2 °C 29.82in /  1009.7hPa Calm     95% 0.01in /  0.3mm
01:20 67.8 °F /  19.9 °C 66.3 °F /  19.1 °C 29.82in /  1009.7hPa Calm     95% 0.01in /  0.3mm
01:25 67.6 °F /  19.8 °C 66.1 °F /  18.9 °C 29.82in /  1009.7hPa Calm     95% 0.01in /  0.3mm
01:29 67.4 °F /  19.7 °C 65.9 °F /  18.8 °C 29.82in /  1009.7hPa Calm     95% 0.01in /  0.3mm
01:35 67.3 °F /  19.6 °C 65.8 °F /  18.8 °C 29.82in /  1009.7hPa Calm     95% 0.01in /  0.3mm
01:40 67.1 °F /  19.5 °C 65.6 °F /  18.7 °C 29.81in /  1009.4hPa Calm     95% 0.01in /  0.3mm
01:44 67.0 °F /  19.4 °C 65.5 °F /  18.6 °C 29.82in /  1009.7hPa Calm     95% 0.01in /  0.3mm
01:49 66.9 °F /  19.4 °C 65.7 °F /  18.7 °C 29.81in /  1009.4hPa Calm     96% 0.01in /  0.3mm
01:55 66.9 °F /  19.4 °C 65.7 °F /  18.7 °C 29.81in /  1009.4hPa Calm     96% 0.01in /  0.3mm
02:00 66.7 °F /  19.3 °C 65.2 °F /  18.4 °C 29.81in /  1009.4hPa Calm     95% 0.01in /  0.3mm
02:04 66.2 °F /  19 °C 64.7 °F /  18.2 °C 29.81in /  1009.4hPa Calm     95% 0.01in /  0.3mm
02:10 65.9 °F /  18.8 °C 64.4 °F /  18 °C 29.81in /  1009.4hPa Calm     95% 0.01in /  0.3mm
02:15 65.7 °F /  18.7 °C 64.2 °F /  17.9 °C 29.81in /  1009.4hPa Calm     95% 0.01in /  0.3mm
02:20 65.5 °F /  18.6 °C 64.0 °F /  17.8 °C 29.81in /  1009.4hPa Calm     95% 0.01in /  0.3mm
02:24 65.4 °F /  18.6 °C 63.9 °F /  17.7 °C 29.81in /  1009.4hPa Calm     95% 0.01in /  0.3mm
02:30 65.3 °F /  18.5 °C 63.8 °F /  17.7 °C 29.81in /  1009.4hPa Calm     95% 0.01in /  0.3mm
02:34 65.5 °F /  18.6 °C 64.0 °F /  17.8 °C 29.81in /  1009.4hPa Calm     95% 0.01in /  0.3mm
02:40 65.7 °F /  18.7 °C 64.5 °F /  18.1 °C 29.81in /  1009.4hPa Calm     96% 0.01in /  0.3mm
02:45 65.8 °F /  18.8 °C 64.6 °F /  18.1 °C 29.81in /  1009.4hPa Calm   1.0mph /  1.6km/h 96% 0.01in /  0.3mm
02:49 66.0 °F /  18.9 °C 64.8 °F /  18.2 °C 29.80in /  1009hPa Calm   1.0mph /  1.6km/h 96% 0.01in /  0.3mm
02:55 66.1 °F /  18.9 °C 64.9 °F /  18.3 °C 29.80in /  1009hPa Calm   1.0mph /  1.6km/h 96% 0.01in /  0.3mm
03:00 66.1 °F /  18.9 °C 64.9 °F /  18.3 °C 29.80in /  1009hPa SSW 1.0mph /  1.6km/h 4.0mph /  6.4km/h 96% 0.01in /  0.3mm
03:04 66.1 °F /  18.9 °C 64.9 °F /  18.3 °C 29.80in /  1009hPa SSW 1.0mph /  1.6km/h 4.0mph /  6.4km/h 96% 0.01in /  0.3mm
03:10 66.0 °F /  18.9 °C 64.8 °F /  18.2 °C 29.79in /  1008.7hPa SSW 1.0mph /  1.6km/h 4.0mph /  6.4km/h 96% 0.01in /  0.3mm
03:15 66.1 °F /  18.9 °C 64.9 °F /  18.3 °C 29.79in /  1008.7hPa Calm   4.0mph /  6.4km/h 96% 0.01in /  0.3mm
03:19 66.2 °F /  19 °C 65.0 °F /  18.3 °C 29.79in /  1008.7hPa SW 2.0mph /  3.2km/h 6.0mph /  9.7km/h 96% 0.01in /  0.3mm
03:25 66.5 °F /  19.2 °C 65.3 °F /  18.5 °C 29.79in /  1008.7hPa Calm   6.0mph /  9.7km/h 96% 0.01in /  0.3mm
03:30 66.7 °F /  19.3 °C 65.5 °F /  18.6 °C 29.79in /  1008.7hPa SSW 2.0mph /  3.2km/h 5.0mph /  8km/h 96% 0.01in /  0.3mm
03:40 66.9 °F /  19.4 °C 65.7 °F /  18.7 °C 29.79in /  1008.7hPa Calm   5.0mph /  8km/h 96% 0.01in /  0.3mm
03:44 66.9 °F /  19.4 °C 65.7 °F /  18.7 °C 29.79in /  1008.7hPa Calm   7.0mph /  11.3km/h 96% 0.01in /  0.3mm
03:50 67.0 °F /  19.4 °C 65.8 °F /  18.8 °C 29.79in /  1008.7hPa SSW 1.0mph /  1.6km/h 7.0mph /  11.3km/h 96% 0.01in /  0.3mm
03:55 67.0 °F /  19.4 °C 65.8 °F /  18.8 °C 29.79in /  1008.7hPa SSW 2.0mph /  3.2km/h 5.0mph /  8km/h 96% 0.01in /  0.3mm
03:59 67.0 °F /  19.4 °C 65.8 °F /  18.8 °C 29.78in /  1008.4hPa Calm   5.0mph /  8km/h 96% 0.01in /  0.3mm
04:05 67.0 °F /  19.4 °C 65.8 °F /  18.8 °C 29.78in /  1008.4hPa SW 3.0mph /  4.8km/h 5.0mph /  8km/h 96% 0.01in /  0.3mm
04:10 66.9 °F /  19.4 °C 65.7 °F /  18.7 °C 29.78in /  1008.4hPa SSW 1.0mph /  1.6km/h 5.0mph /  8km/h 96% 0.01in /  0.3mm
04:14 66.8 °F /  19.3 °C 65.6 °F /  18.7 °C 29.78in /  1008.4hPa Calm   5.0mph /  8km/h 96% 0.01in /  0.3mm
04:20 66.7 °F /  19.3 °C 65.5 °F /  18.6 °C 29.78in /  1008.4hPa Calm   5.0mph /  8km/h 96% 0.01in /  0.3mm
04:25 66.7 °F /  19.3 °C 65.5 °F /  18.6 °C 29.77in /  1008hPa SSW 1.0mph /  1.6km/h 4.0mph /  6.4km/h 96% 0.01in /  0.3mm
04:30 66.8 °F /  19.3 °C 65.6 °F /  18.7 °C 29.78in /  1008.4hPa Calm   4.0mph /  6.4km/h 96% 0.01in /  0.3mm
04:35 66.8 °F /  19.3 °C 65.6 °F /  18.7 °C 29.78in /  1008.4hPa SSW 1.0mph /  1.6km/h 3.0mph /  4.8km/h 96% 0.01in /  0.3mm
04:40 66.9 °F /  19.4 °C 65.7 °F /  18.7 °C 29.78in /  1008.4hPa Calm   3.0mph /  4.8km/h 96% 0.01in /  0.3mm
04:45 66.9 °F /  19.4 °C 65.7 °F /  18.7 °C 29.78in /  1008.4hPa Calm   3.0mph /  4.8km/h 96% 0.01in /  0.3mm
04:49 67.0 °F /  19.4 °C 65.8 °F /  18.8 °C 29.78in /  1008.4hPa Calm   1.0mph /  1.6km/h 96% 0.01in /  0.3mm
04:55 67.0 °F /  19.4 °C 65.8 °F /  18.8 °C 29.78in /  1008.4hPa Calm     96% 0.01in /  0.3mm
04:59 67.1 °F /  19.5 °C 65.9 °F /  18.8 °C 29.79in /  1008.7hPa Calm     96% 0.01in /  0.3mm
05:04 67.2 °F /  19.6 °C 66.0 °F /  18.9 °C 29.79in /  1008.7hPa NE 1.0mph /  1.6km/h 3.0mph /  4.8km/h 96% 0.01in /  0.3mm
05:10 67.1 °F /  19.5 °C 65.9 °F /  18.8 °C 29.79in /  1008.7hPa Calm   8.0mph /  12.9km/h 96% 0.01in /  0.3mm
05:15 67.1 °F /  19.5 °C 65.9 °F /  18.8 °C 29.79in /  1008.7hPa Calm   8.0mph /  12.9km/h 96% 0.01in /  0.3mm
05:19 67.1 °F /  19.5 °C 65.9 °F /  18.8 °C 29.79in /  1008.7hPa Calm     96% 0.01in /  0.3mm
05:25 67.1 °F /  19.5 °C 65.9 °F /  18.8 °C 29.79in /  1008.7hPa Calm     96% 0.01in /  0.3mm
05:30 67.1 °F /  19.5 °C 65.9 °F /  18.8 °C 29.79in /  1008.7hPa Calm     96% 0.01in /  0.3mm
05:34 67.1 °F /  19.5 °C 65.9 °F /  18.8 °C 29.78in /  1008.4hPa Calm     96% 0.01in /  0.3mm
05:39 67.1 °F /  19.5 °C 65.9 °F /  18.8 °C 29.78in /  1008.4hPa Calm   1.0mph /  1.6km/h 96% 0.01in /  0.3mm
05:45 67.1 °F /  19.5 °C 65.9 °F /  18.8 °C 29.78in /  1008.4hPa Calm   1.0mph /  1.6km/h 96% 0.01in /  0.3mm
05:54 67.0 °F /  19.4 °C 65.8 °F /  18.8 °C 29.78in /  1008.4hPa Calm   4.0mph /  6.4km/h 96% 0.02in /  0.5mm
05:59 67.0 °F /  19.4 °C 65.8 °F /  18.8 °C 29.78in /  1008.4hPa Calm   1.0mph /  1.6km/h 96% 0.02in /  0.5mm
06:05 67.1 °F /  19.5 °C 65.9 °F /  18.8 °C 29.78in /  1008.4hPa SSW 1.0mph /  1.6km/h 4.0mph /  6.4km/h 96% 0.02in /  0.5mm
06:09 67.2 °F /  19.6 °C 66.0 °F /  18.9 °C 29.78in /  1008.4hPa Calm   4.0mph /  6.4km/h 96% 0.02in /  0.5mm
06:14 67.2 °F /  19.6 °C 66.0 °F /  18.9 °C 29.78in /  1008.4hPa Calm   2.0mph /  3.2km/h 96% 0.02in /  0.5mm
06:19 67.4 °F /  19.7 °C 66.2 °F /  19 °C 29.78in /  1008.4hPa Calm     96% 0.02in /  0.5mm
06:25 67.6 °F /  19.8 °C 66.4 °F /  19.1 °C 29.78in /  1008.4hPa SSW 1.0mph /  1.6km/h 4.0mph /  6.4km/h 96% 0.02in /  0.5mm
06:29 67.7 °F /  19.8 °C 66.8 °F /  19.3 °C 29.78in /  1008.4hPa Calm   4.0mph /  6.4km/h 97% 0.02in /  0.5mm
06:35 67.9 °F /  19.9 °C 67.0 °F /  19.4 °C 29.79in /  1008.7hPa Calm   3.0mph /  4.8km/h 97% 0.02in /  0.5mm
06:39 68.0 °F /  20 °C 67.1 °F /  19.5 °C 29.79in /  1008.7hPa SSW 1.0mph /  1.6km/h 4.0mph /  6.4km/h 97% 0.02in /  0.5mm
06:44 68.0 °F /  20 °C 66.8 °F /  19.3 °C 29.79in /  1008.7hPa Calm   4.0mph /  6.4km/h 96% 0.02in /  0.5mm
06:50 68.1 °F /  20.1 °C 66.9 °F /  19.4 °C 29.79in /  1008.7hPa Calm   4.0mph /  6.4km/h 96% 0.02in /  0.5mm
06:55 68.1 °F /  20.1 °C 66.9 °F /  19.4 °C 29.79in /  1008.7hPa Calm   4.0mph /  6.4km/h 96% 0.02in /  0.5mm
06:59 68.3 °F /  20.2 °C 67.4 °F /  19.7 °C 29.80in /  1009hPa Calm   3.0mph /  4.8km/h 97% 0.02in /  0.5mm
07:04 68.5 °F /  20.3 °C 67.6 °F /  19.8 °C 29.80in /  1009hPa Calm   4.0mph /  6.4km/h 97% 0.02in /  0.5mm
07:10 68.6 °F /  20.3 °C 67.7 °F /  19.8 °C 29.79in /  1008.7hPa Calm   4.0mph /  6.4km/h 97% 0.02in /  0.5mm
07:14 68.6 °F /  20.3 °C 67.7 °F /  19.8 °C 29.80in /  1009hPa Calm   2.0mph /  3.2km/h 97% 0.02in /  0.5mm
07:20 68.6 °F /  20.3 °C 67.4 °F /  19.7 °C 29.80in /  1009hPa Calm   2.0mph /  3.2km/h 96% 0.02in /  0.5mm
07:24 68.5 °F /  20.3 °C 67.3 °F /  19.6 °C 29.80in /  1009hPa Calm   1.0mph /  1.6km/h 96% 0.02in /  0.5mm
07:30 68.5 °F /  20.3 °C 67.3 °F /  19.6 °C 29.80in /  1009hPa Calm   3.0mph /  4.8km/h 96% 0.02in /  0.5mm
07:34 68.5 °F /  20.3 °C 67.3 °F /  19.6 °C 29.80in /  1009hPa Calm   3.0mph /  4.8km/h 96% 0.02in /  0.5mm
07:39 68.6 °F /  20.3 °C 67.4 °F /  19.7 °C 29.80in /  1009hPa Calm   3.0mph /  4.8km/h 96% 0.02in /  0.5mm
07:45 68.7 °F /  20.4 °C 67.5 °F /  19.7 °C 29.80in /  1009hPa SSW 1.0mph /  1.6km/h 5.0mph /  8km/h 96% 0.02in /  0.5mm
07:49 68.6 °F /  20.3 °C 67.4 °F /  19.7 °C 29.80in /  1009hPa Calm   5.0mph /  8km/h 96% 0.02in /  0.5mm
07:55 68.6 °F /  20.3 °C 67.4 °F /  19.7 °C 29.80in /  1009hPa Calm   5.0mph /  8km/h 96% 0.02in /  0.5mm
07:59 68.6 °F /  20.3 °C 67.4 °F /  19.7 °C 29.80in /  1009hPa WSW 1.0mph /  1.6km/h 5.0mph /  8km/h 96% 0.02in /  0.5mm
08:05 68.6 °F /  20.3 °C 67.4 °F /  19.7 °C 29.80in /  1009hPa Calm   5.0mph /  8km/h 96% 0.02in /  0.5mm
08:09 68.7 °F /  20.4 °C 67.5 °F /  19.7 °C 29.80in /  1009hPa SW 1.0mph /  1.6km/h 5.0mph /  8km/h 96% 0.02in /  0.5mm
08:14 68.9 °F /  20.5 °C 67.7 °F /  19.8 °C 29.80in /  1009hPa Calm   5.0mph /  8km/h 96% 0.02in /  0.5mm
08:20 69.2 °F /  20.7 °C 68.0 °F /  20 °C 29.80in /  1009hPa Calm   5.0mph /  8km/h 96% 0.02in /  0.5mm
08:24 69.4 °F /  20.8 °C 68.2 °F /  20.1 °C 29.80in /  1009hPa Calm   5.0mph /  8km/h 96% 0.02in /  0.5mm
08:29 69.7 °F /  20.9 °C 68.5 °F /  20.3 °C 29.80in /  1009hPa Calm   1.0mph /  1.6km/h 96% 0.02in /  0.5mm
08:35 70.0 °F /  21.1 °C 68.8 °F /  20.4 °C 29.80in /  1009hPa Calm   1.0mph /  1.6km/h 96% 0.02in /  0.5mm
08:40 70.2 °F /  21.2 °C 68.7 °F /  20.4 °C 29.80in /  1009hPa Calm   7.0mph /  11.3km/h 95% 0.02in /  0.5mm
08:44 70.4 °F /  21.3 °C 68.6 °F /  20.3 °C 29.80in /  1009hPa Calm   7.0mph /  11.3km/h 94% 0.02in /  0.5mm
08:50 70.8 °F /  21.6 °C 68.7 °F /  20.4 °C 29.80in /  1009hPa Calm   6.0mph /  9.7km/h 93% 0.02in /  0.5mm
08:54 71.3 °F /  21.8 °C 68.9 °F /  20.5 °C 29.80in /  1009hPa WSW 1.0mph /  1.6km/h 6.0mph /  9.7km/h 92% 0.02in /  0.5mm
08:59 71.6 °F /  22 °C 68.5 °F /  20.3 °C 29.80in /  1009hPa West 1.0mph /  1.6km/h 5.0mph /  8km/h 90% 0.02in /  0.5mm
09:05 71.6 °F /  22 °C 68.2 °F /  20.1 °C 29.80in /  1009hPa Calm   5.0mph /  8km/h 89% 0.02in /  0.5mm
09:09 71.7 °F /  22.1 °C 68.0 °F /  20 °C 29.80in /  1009hPa West 2.0mph /  3.2km/h 6.0mph /  9.7km/h 88% 0.02in /  0.5mm
09:14 72.0 °F /  22.2 °C 68.6 °F /  20.3 °C 29.80in /  1009hPa Calm   6.0mph /  9.7km/h 89% 0.02in /  0.5mm
09:19 72.1 °F /  22.3 °C 68.0 °F /  20 °C 29.80in /  1009hPa WSW 2.0mph /  3.2km/h 6.0mph /  9.7km/h 87% 0.02in /  0.5mm
09:25 72.1 °F /  22.3 °C 68.0 °F /  20 °C 29.80in /  1009hPa WSW 2.0mph /  3.2km/h 6.0mph /  9.7km/h 87% 0.02in /  0.5mm
09:29 72.1 °F /  22.3 °C 68.0 °F /  20 °C 29.80in /  1009hPa WNW 1.0mph /  1.6km/h 8.0mph /  12.9km/h 87% 0.02in /  0.5mm
09:34 72.2 °F /  22.3 °C 68.1 °F /  20.1 °C 29.80in /  1009hPa Calm   8.0mph /  12.9km/h 87% 0.02in /  0.5mm
09:40 72.0 °F /  22.2 °C 67.9 °F /  19.9 °C 29.80in /  1009hPa SW 2.0mph /  3.2km/h 6.0mph /  9.7km/h 87% 0.02in /  0.5mm
09:44 71.9 °F /  22.2 °C 68.2 °F /  20.1 °C 29.80in /  1009hPa West 2.0mph /  3.2km/h 6.0mph /  9.7km/h 88% 0.02in /  0.5mm
09:49 71.8 °F /  22.1 °C 67.7 °F /  19.8 °C 29.79in /  1008.7hPa West 1.0mph /  1.6km/h 6.0mph /  9.7km/h 87% 0.02in /  0.5mm
09:55 71.9 °F /  22.2 °C 68.2 °F /  20.1 °C 29.79in /  1008.7hPa West 1.0mph /  1.6km/h 5.0mph /  8km/h 88% 0.02in /  0.5mm
09:59 72.2 °F /  22.3 °C 68.5 °F /  20.3 °C 29.79in /  1008.7hPa West 2.0mph /  3.2km/h 5.0mph /  8km/h 88% 0.02in /  0.5mm
10:05 72.5 °F /  22.5 °C 68.4 °F /  20.2 °C 29.79in /  1008.7hPa Calm   5.0mph /  8km/h 87% 0.02in /  0.5mm
10:09 72.8 °F /  22.7 °C 68.4 °F /  20.2 °C 29.79in /  1008.7hPa WNW 2.0mph /  3.2km/h 6.0mph /  9.7km/h 86% 0.02in /  0.5mm
10:14 73.1 °F /  22.8 °C 68.7 °F /  20.4 °C 29.79in /  1008.7hPa SW 1.0mph /  1.6km/h 8.0mph /  12.9km/h 86% 0.02in /  0.5mm
10:20 73.3 °F /  22.9 °C 68.5 °F /  20.3 °C 29.79in /  1008.7hPa SW 3.0mph /  4.8km/h 8.0mph /  12.9km/h 85% 0.02in /  0.5mm
10:24 73.7 °F /  23.2 °C 68.9 °F /  20.5 °C 29.78in /  1008.4hPa Calm   7.0mph /  11.3km/h 85% 0.02in /  0.5mm
10:29 73.9 °F /  23.3 °C 69.1 °F /  20.6 °C 29.78in /  1008.4hPa Calm   6.0mph /  9.7km/h 85% 0.02in /  0.5mm
10:35 74.1 °F /  23.4 °C 69.3 °F /  20.7 °C 29.78in /  1008.4hPa Calm   6.0mph /  9.7km/h 85% 0.02in /  0.5mm
10:39 74.2 °F /  23.4 °C 69.4 °F /  20.8 °C 29.78in /  1008.4hPa Calm   7.0mph /  11.3km/h 85% 0.02in /  0.5mm
10:45 74.2 °F /  23.4 °C 69.4 °F /  20.8 °C 29.78in /  1008.4hPa Calm   7.0mph /  11.3km/h 85% 0.02in /  0.5mm
10:54 74.6 °F /  23.7 °C 69.1 °F /  20.6 °C 29.78in /  1008.4hPa West 1.0mph /  1.6km/h 5.0mph /  8km/h 83% 0.02in /  0.5mm
10:59 74.8 °F /  23.8 °C 69.3 °F /  20.7 °C 29.78in /  1008.4hPa WNW 4.0mph /  6.4km/h 6.0mph /  9.7km/h 83% 0.02in /  0.5mm
11:04 75.0 °F /  23.9 °C 69.1 °F /  20.6 °C 29.78in /  1008.4hPa Calm   6.0mph /  9.7km/h 82% 0.02in /  0.5mm
11:09 75.1 °F /  23.9 °C 68.9 °F /  20.5 °C 29.78in /  1008.4hPa WNW 2.0mph /  3.2km/h 7.0mph /  11.3km/h 81% 0.02in /  0.5mm
11:14 75.2 °F /  24 °C 69.3 °F /  20.7 °C 29.78in /  1008.4hPa NW 1.0mph /  1.6km/h 8.0mph /  12.9km/h 82% 0.02in /  0.5mm
11:19 75.7 °F /  24.3 °C 70.2 °F /  21.2 °C 29.78in /  1008.4hPa WNW 2.0mph /  3.2km/h 8.0mph /  12.9km/h 83% 0.02in /  0.5mm
11:25 76.9 °F /  24.9 °C 70.6 °F /  21.4 °C 29.78in /  1008.4hPa WNW 2.0mph /  3.2km/h 6.0mph /  9.7km/h 81% 0.02in /  0.5mm
11:29 77.7 °F /  25.4 °C 70.7 °F /  21.5 °C 29.79in /  1008.7hPa WSW 1.0mph /  1.6km/h 6.0mph /  9.7km/h 79% 0.02in /  0.5mm
11:34 77.7 °F /  25.4 °C 69.9 °F /  21.1 °C 29.79in /  1008.7hPa Calm   5.0mph /  8km/h 77% 0.02in /  0.5mm
11:40 77.0 °F /  25 °C 69.2 °F /  20.7 °C 29.79in /  1008.7hPa West 2.0mph /  3.2km/h 7.0mph /  11.3km/h 77% 0.02in /  0.5mm
11:44 77.1 °F /  25.1 °C 69.3 °F /  20.7 °C 29.79in /  1008.7hPa WNW 4.0mph /  6.4km/h 7.0mph /  11.3km/h 77% 0.02in /  0.5mm
11:49 77.3 °F /  25.2 °C 69.9 °F /  21.1 °C 29.79in /  1008.7hPa NW 2.0mph /  3.2km/h 7.0mph /  11.3km/h 78% 0.02in /  0.5mm
11:55 77.6 °F /  25.3 °C 69.4 °F /  20.8 °C 29.78in /  1008.4hPa West 1.0mph /  1.6km/h 6.0mph /  9.7km/h 76% 0.02in /  0.5mm
11:59 78.1 °F /  25.6 °C 70.3 °F /  21.3 °C 29.78in /  1008.4hPa West 2.0mph /  3.2km/h 6.0mph /  9.7km/h 77% 0.02in /  0.5mm
12:04 79.0 °F /  26.1 °C 70.0 °F /  21.1 °C 29.78in /  1008.4hPa West 4.0mph /  6.4km/h 6.0mph /  9.7km/h 74% 0.02in /  0.5mm
12:09 79.9 °F /  26.6 °C 71.3 °F /  21.8 °C 29.78in /  1008.4hPa WNW 2.0mph /  3.2km/h 7.0mph /  11.3km/h 75% 0.02in /  0.5mm
12:15 80.0 °F /  26.7 °C 68.9 °F /  20.5 °C 29.78in /  1008.4hPa West 1.0mph /  1.6km/h 9.0mph /  14.5km/h 69% 0.02in /  0.5mm
12:19 80.0 °F /  26.7 °C 70.2 °F /  21.2 °C 29.78in /  1008.4hPa Calm   9.0mph /  14.5km/h 72% 0.02in /  0.5mm
12:24 80.2 °F /  26.8 °C 70.0 °F /  21.1 °C 29.78in /  1008.4hPa WNW 5.0mph /  8km/h 9.0mph /  14.5km/h 71% 0.02in /  0.5mm
12:30 80.6 °F /  27 °C 72.0 °F /  22.2 °C 29.78in /  1008.4hPa Calm   9.0mph /  14.5km/h 75% 0.02in /  0.5mm
12:39 80.5 °F /  26.9 °C 69.8 °F /  21 °C 29.78in /  1008.4hPa Calm   6.0mph /  9.7km/h 70% 0.02in /  0.5mm
12:45 80.7 °F /  27.1 °C 70.0 °F /  21.1 °C 29.78in /  1008.4hPa NW 3.0mph /  4.8km/h 7.0mph /  11.3km/h 70% 0.02in /  0.5mm
12:49 80.6 °F /  27 °C 71.2 °F /  21.8 °C 29.78in /  1008.4hPa Calm   7.0mph /  11.3km/h 73% 0.02in /  0.5mm
12:54 80.9 °F /  27.2 °C 70.6 °F /  21.4 °C 29.78in /  1008.4hPa WNW 4.0mph /  6.4km/h 7.0mph /  11.3km/h 71% 0.02in /  0.5mm
12:59 80.8 °F /  27.1 °C 69.7 °F /  20.9 °C 29.78in /  1008.4hPa WNW 5.0mph /  8km/h 9.0mph /  14.5km/h 69% 0.02in /  0.5mm
13:04 80.5 °F /  26.9 °C 70.2 °F /  21.2 °C 29.78in /  1008.4hPa WNW 3.0mph /  4.8km/h 9.0mph /  14.5km/h 71% 0.02in /  0.5mm
13:09 80.8 °F /  27.1 °C 70.9 °F /  21.6 °C 29.77in /  1008hPa NW 3.0mph /  4.8km/h 9.0mph /  14.5km/h 72% 0.02in /  0.5mm
13:15 81.2 °F /  27.3 °C 72.1 °F /  22.3 °C 29.77in /  1008hPa Calm   7.0mph /  11.3km/h 74% 0.02in /  0.5mm
13:19 82.0 °F /  27.8 °C 72.1 °F /  22.3 °C 29.77in /  1008hPa Calm   6.0mph /  9.7km/h 72% 0.02in /  0.5mm
13:24 82.7 °F /  28.2 °C 71.9 °F /  22.2 °C 29.77in /  1008hPa NW 2.0mph /  3.2km/h 9.0mph /  14.5km/h 70% 0.02in /  0.5mm
13:29 82.5 °F /  28.1 °C 69.6 °F /  20.9 °C 29.77in /  1008hPa NW 3.0mph /  4.8km/h 9.0mph /  14.5km/h 65% 0.02in /  0.5mm
13:34 82.8 °F /  28.2 °C 71.2 °F /  21.8 °C 29.77in /  1008hPa NW 2.0mph /  3.2km/h 7.0mph /  11.3km/h 68% 0.02in /  0.5mm
13:39 83.2 °F /  28.4 °C 71.6 °F /  22 °C 29.77in /  1008hPa NW 1.0mph /  1.6km/h 6.0mph /  9.7km/h 68% 0.02in /  0.5mm
13:44 83.3 °F /  28.5 °C 70.8 °F /  21.6 °C 29.77in /  1008hPa Calm   4.0mph /  6.4km/h 66% 0.02in /  0.5mm
13:50 83.4 °F /  28.6 °C 72.2 °F /  22.3 °C 29.77in /  1008hPa NW 2.0mph /  3.2km/h 6.0mph /  9.7km/h 69% 0.02in /  0.5mm
13:54 83.7 °F /  28.7 °C 71.6 °F /  22 °C 29.77in /  1008hPa Calm   7.0mph /  11.3km/h 67% 0.02in /  0.5mm
13:59 84.3 °F /  29.1 °C 71.7 °F /  22.1 °C 29.76in /  1007.7hPa North 2.0mph /  3.2km/h 8.0mph /  12.9km/h 66% 0.02in /  0.5mm
14:04 83.9 °F /  28.8 °C 70.4 °F /  21.3 °C 29.77in /  1008hPa WNW 5.0mph /  8km/h 10.0mph /  16.1km/h 64% 0.02in /  0.5mm
14:09 83.1 °F /  28.4 °C 69.7 °F /  20.9 °C 29.76in /  1007.7hPa NW 3.0mph /  4.8km/h 10.0mph /  16.1km/h 64% 0.02in /  0.5mm
14:14 82.8 °F /  28.2 °C 71.6 °F /  22 °C 29.76in /  1007.7hPa WNW 2.0mph /  3.2km/h 8.0mph /  12.9km/h 69% 0.02in /  0.5mm
14:19 83.0 °F /  28.3 °C 70.9 °F /  21.6 °C 29.76in /  1007.7hPa Calm   5.0mph /  8km/h 67% 0.02in /  0.5mm
14:24 82.7 °F /  28.2 °C 70.6 °F /  21.4 °C 29.76in /  1007.7hPa WNW 5.0mph /  8km/h 12.0mph /  19.3km/h 67% 0.02in /  0.5mm
14:29 82.0 °F /  27.8 °C 69.1 °F /  20.6 °C 29.76in /  1007.7hPa NW 2.0mph /  3.2km/h 12.0mph /  19.3km/h 65% 0.02in /  0.5mm
14:34 82.1 °F /  27.8 °C 70.1 °F /  21.2 °C 29.76in /  1007.7hPa West 1.0mph /  1.6km/h 10.0mph /  16.1km/h 67% 0.02in /  0.5mm
14:39 82.4 °F /  28 °C 70.8 °F /  21.6 °C 29.75in /  1007.3hPa WNW 1.0mph /  1.6km/h 7.0mph /  11.3km/h 68% 0.02in /  0.5mm
14:44 82.3 °F /  27.9 °C 70.7 °F /  21.5 °C 29.75in /  1007.3hPa Calm   6.0mph /  9.7km/h 68% 0.02in /  0.5mm
14:49 81.8 °F /  27.7 °C 70.2 °F /  21.2 °C 29.75in /  1007.3hPa NNE 1.0mph /  1.6km/h 5.0mph /  8km/h 68% 0.02in /  0.5mm
14:54 81.9 °F /  27.7 °C 69.9 °F /  21.1 °C 29.75in /  1007.3hPa NW 4.0mph /  6.4km/h 9.0mph /  14.5km/h 67% 0.02in /  0.5mm
14:59 82.0 °F /  27.8 °C 71.3 °F /  21.8 °C 29.75in /  1007.3hPa WNW 3.0mph /  4.8km/h 9.0mph /  14.5km/h 70% 0.02in /  0.5mm
15:04 82.4 °F /  28 °C 71.2 °F /  21.8 °C 29.75in /  1007.3hPa NNW 1.0mph /  1.6km/h 8.0mph /  12.9km/h 69% 0.02in /  0.5mm
15:09 82.5 °F /  28.1 °C 70.9 °F /  21.6 °C 29.75in /  1007.3hPa NW 4.0mph /  6.4km/h 9.0mph /  14.5km/h 68% 0.02in /  0.5mm
15:14 82.3 °F /  27.9 °C 71.5 °F /  21.9 °C 29.75in /  1007.3hPa NW 1.0mph /  1.6km/h 9.0mph /  14.5km/h 70% 0.02in /  0.5mm
15:19 82.7 °F /  28.2 °C 71.5 °F /  21.9 °C 29.75in /  1007.3hPa WNW 2.0mph /  3.2km/h 8.0mph /  12.9km/h 69% 0.02in /  0.5mm
15:25 83.2 °F /  28.4 °C 70.7 °F /  21.5 °C 29.75in /  1007.3hPa Calm   7.0mph /  11.3km/h 66% 0.02in /  0.5mm
15:29 83.4 °F /  28.6 °C 70.4 °F /  21.3 °C 29.74in /  1007hPa WNW 2.0mph /  3.2km/h 3.0mph /  4.8km/h 65% 0.02in /  0.5mm
15:34 82.7 °F /  28.2 °C 69.8 °F /  21 °C 29.75in /  1007.3hPa WNW 2.0mph /  3.2km/h 5.0mph /  8km/h 65% 0.02in /  0.5mm
15:39 82.6 °F /  28.1 °C 69.7 °F /  20.9 °C 29.74in /  1007hPa Calm   8.0mph /  12.9km/h 65% 0.02in /  0.5mm
15:44 82.7 °F /  28.2 °C 69.3 °F /  20.7 °C 29.75in /  1007.3hPa WNW 2.0mph /  3.2km/h 8.0mph /  12.9km/h 64% 0.02in /  0.5mm
15:49 83.1 °F /  28.4 °C 70.6 °F /  21.4 °C 29.74in /  1007hPa Calm   6.0mph /  9.7km/h 66% 0.02in /  0.5mm
15:54 83.6 °F /  28.7 °C 71.5 °F /  21.9 °C 29.74in /  1007hPa WNW 1.0mph /  1.6km/h 4.0mph /  6.4km/h 67% 0.02in /  0.5mm
15:59 83.6 °F /  28.7 °C 70.6 °F /  21.4 °C 29.74in /  1007hPa NW 1.0mph /  1.6km/h 6.0mph /  9.7km/h 65% 0.02in /  0.5mm
16:04 83.4 °F /  28.6 °C 70.4 °F /  21.3 °C 29.74in /  1007hPa NW 2.0mph /  3.2km/h 6.0mph /  9.7km/h 65% 0.02in /  0.5mm
16:09 82.6 °F /  28.1 °C 71.0 °F /  21.7 °C 29.74in /  1007hPa NW 2.0mph /  3.2km/h 5.0mph /  8km/h 68% 0.02in /  0.5mm
16:14 82.1 °F /  27.8 °C 71.4 °F /  21.9 °C 29.74in /  1007hPa NW 1.0mph /  1.6km/h 5.0mph /  8km/h 70% 0.02in /  0.5mm
16:19 82.0 °F /  27.8 °C 70.4 °F /  21.3 °C 29.74in /  1007hPa NW 1.0mph /  1.6km/h 6.0mph /  9.7km/h 68% 0.02in /  0.5mm
16:24 82.0 °F /  27.8 °C 70.4 °F /  21.3 °C 29.74in /  1007hPa Calm   6.0mph /  9.7km/h 68% 0.02in /  0.5mm
16:29 82.2 °F /  27.9 °C 69.7 °F /  20.9 °C 29.74in /  1007hPa WNW 2.0mph /  3.2km/h 5.0mph /  8km/h 66% 0.02in /  0.5mm
16:34 82.4 °F /  28 °C 69.9 °F /  21.1 °C 29.74in /  1007hPa NW 3.0mph /  4.8km/h 5.0mph /  8km/h 66% 0.02in /  0.5mm
16:39 81.6 °F /  27.6 °C 70.5 °F /  21.4 °C 29.74in /  1007hPa NW 2.0mph /  3.2km/h 6.0mph /  9.7km/h 69% 0.02in /  0.5mm
16:44 81.2 °F /  27.3 °C 69.6 °F /  20.9 °C 29.74in /  1007hPa NW 1.0mph /  1.6km/h 6.0mph /  9.7km/h 68% 0.02in /  0.5mm
16:49 81.4 °F /  27.4 °C 69.4 °F /  20.8 °C 29.74in /  1007hPa Calm   3.0mph /  4.8km/h 67% 0.02in /  0.5mm
16:54 81.6 °F /  27.6 °C 70.0 °F /  21.1 °C 29.74in /  1007hPa Calm   7.0mph /  11.3km/h 68% 0.02in /  0.5mm
16:59 81.2 °F /  27.3 °C 70.1 °F /  21.2 °C 29.74in /  1007hPa NW 1.0mph /  1.6km/h 7.0mph /  11.3km/h 69% 0.02in /  0.5mm
17:04 80.6 °F /  27 °C 69.9 °F /  21.1 °C 29.74in /  1007hPa NW 1.0mph /  1.6km/h 4.0mph /  6.4km/h 70% 0.02in /  0.5mm
17:09 80.1 °F /  26.7 °C 69.0 °F /  20.6 °C 29.74in /  1007hPa NW 2.0mph /  3.2km/h 5.0mph /  8km/h 69% 0.02in /  0.5mm
17:14 80.0 °F /  26.7 °C 69.3 °F /  20.7 °C 29.74in /  1007hPa WNW 2.0mph /  3.2km/h 5.0mph /  8km/h 70% 0.02in /  0.5mm
17:19 80.0 °F /  26.7 °C 69.3 °F /  20.7 °C 29.74in /  1007hPa NW 2.0mph /  3.2km/h 6.0mph /  9.7km/h 70% 0.02in /  0.5mm
17:24 80.1 °F /  26.7 °C 70.3 °F /  21.3 °C 29.74in /  1007hPa NW 1.0mph /  1.6km/h 6.0mph /  9.7km/h 72% 0.02in /  0.5mm
17:29 80.1 °F /  26.7 °C 69.4 °F /  20.8 °C 29.74in /  1007hPa NW 1.0mph /  1.6km/h 5.0mph /  8km/h 70% 0.02in /  0.5mm
17:34 80.2 °F /  26.8 °C 70.0 °F /  21.1 °C 29.74in /  1007hPa Calm   6.0mph /  9.7km/h 71% 0.02in /  0.5mm
17:39 80.4 °F /  26.9 °C 69.3 °F /  20.7 °C 29.74in /  1007hPa NW 2.0mph /  3.2km/h 6.0mph /  9.7km/h 69% 0.02in /  0.5mm
17:44 80.7 °F /  27.1 °C 70.4 °F /  21.3 °C 29.74in /  1007hPa Calm   5.0mph /  8km/h 71% 0.02in /  0.5mm
17:49 81.1 °F /  27.3 °C 70.4 °F /  21.3 °C 29.74in /  1007hPa Calm   3.0mph /  4.8km/h 70% 0.02in /  0.5mm
17:54 81.6 °F /  27.6 °C 70.9 °F /  21.6 °C 29.74in /  1007hPa Calm   10.0mph /  16.1km/h 70% 0.02in /  0.5mm
17:59 81.8 °F /  27.7 °C 69.3 °F /  20.7 °C 29.74in /  1007hPa WNW 3.0mph /  4.8km/h 15.0mph /  24.1km/h 66% 0.02in /  0.5mm
18:04 81.2 °F /  27.3 °C 69.6 °F /  20.9 °C 29.74in /  1007hPa Calm   15.0mph /  24.1km/h 68% 0.02in /  0.5mm
18:09 80.6 °F /  27 °C 69.5 °F /  20.8 °C 29.74in /  1007hPa Calm   4.0mph /  6.4km/h 69% 0.02in /  0.5mm
18:14 80.0 °F /  26.7 °C 69.3 °F /  20.7 °C 29.74in /  1007hPa Calm   3.0mph /  4.8km/h 70% 0.02in /  0.5mm
18:19 79.3 °F /  26.3 °C 68.3 °F /  20.2 °C 29.74in /  1007hPa Calm   8.0mph /  12.9km/h 69% 0.02in /  0.5mm
18:24 78.9 °F /  26.1 °C 68.3 °F /  20.2 °C 29.74in /  1007hPa Calm   8.0mph /  12.9km/h 70% 0.02in /  0.5mm
18:29 79.2 °F /  26.2 °C 68.6 °F /  20.3 °C 29.74in /  1007hPa Calm   6.0mph /  9.7km/h 70% 0.02in /  0.5mm
18:34 79.2 °F /  26.2 °C 68.2 °F /  20.1 °C 29.74in /  1007hPa NW 1.0mph /  1.6km/h 5.0mph /  8km/h 69% 0.02in /  0.5mm
18:39 78.9 °F /  26.1 °C 67.9 °F /  19.9 °C 29.74in /  1007hPa NW 1.0mph /  1.6km/h 5.0mph /  8km/h 69% 0.02in /  0.5mm
18:44 79.0 °F /  26.1 °C 68.8 °F /  20.4 °C 29.74in /  1007hPa Calm   5.0mph /  8km/h 71% 0.02in /  0.5mm
18:49 79.3 °F /  26.3 °C 67.8 °F /  19.9 °C 29.74in /  1007hPa Calm   3.0mph /  4.8km/h 68% 0.02in /  0.5mm
18:54 79.6 °F /  26.4 °C 67.7 °F /  19.8 °C 29.74in /  1007hPa Calm     67% 0.02in /  0.5mm
18:59 79.8 °F /  26.6 °C 67.4 °F /  19.7 °C 29.73in /  1006.7hPa Calm   3.0mph /  4.8km/h 66% 0.02in /  0.5mm
19:04 79.5 °F /  26.4 °C 68.0 °F /  20 °C 29.74in /  1007hPa Calm   5.0mph /  8km/h 68% 0.02in /  0.5mm
19:09 79.2 °F /  26.2 °C 67.7 °F /  19.8 °C 29.74in /  1007hPa Calm   5.0mph /  8km/h 68% 0.02in /  0.5mm
19:14 79.1 °F /  26.2 °C 69.3 °F /  20.7 °C 29.74in /  1007hPa Calm     72% 0.02in /  0.5mm
19:19 79.1 °F /  26.2 °C 68.5 °F /  20.3 °C 29.74in /  1007hPa Calm     70% 0.02in /  0.5mm
19:24 78.9 °F /  26.1 °C 68.3 °F /  20.2 °C 29.74in /  1007hPa Calm   1.0mph /  1.6km/h 70% 0.02in /  0.5mm
19:29 78.4 °F /  25.8 °C 67.0 °F /  19.4 °C 29.74in /  1007hPa Calm   2.0mph /  3.2km/h 68% 0.02in /  0.5mm
19:34 77.7 °F /  25.4 °C 67.6 °F /  19.8 °C 29.74in /  1007hPa Calm   2.0mph /  3.2km/h 71% 0.02in /  0.5mm
19:39 77.1 °F /  25.1 °C 67.4 °F /  19.7 °C 29.74in /  1007hPa Calm     72% 0.02in /  0.5mm
19:44 76.5 °F /  24.7 °C 67.2 °F /  19.6 °C 29.74in /  1007hPa Calm     73% 0.02in /  0.5mm
19:49 76.1 °F /  24.5 °C 67.2 °F /  19.6 °C 29.74in /  1007hPa Calm     74% 0.02in /  0.5mm
19:54 75.8 °F /  24.3 °C 67.3 °F /  19.6 °C 29.74in /  1007hPa Calm     75% 0.02in /  0.5mm
19:59 75.6 °F /  24.2 °C 67.5 °F /  19.7 °C 29.74in /  1007hPa Calm     76% 0.02in /  0.5mm
20:04 75.4 °F /  24.1 °C 67.3 °F /  19.6 °C 29.74in /  1007hPa Calm     76% 0.02in /  0.5mm
20:09 75.1 °F /  23.9 °C 67.4 °F /  19.7 °C 29.73in /  1006.7hPa Calm     77% 0.02in /  0.5mm
20:14 74.5 °F /  23.6 °C 66.8 °F /  19.3 °C 29.73in /  1006.7hPa Calm     77% 0.02in /  0.5mm
20:19 74.0 °F /  23.3 °C 66.3 °F /  19.1 °C 29.73in /  1006.7hPa Calm     77% 0.02in /  0.5mm
20:24 73.5 °F /  23.1 °C 66.6 °F /  19.2 °C 29.73in /  1006.7hPa Calm     79% 0.02in /  0.5mm
20:29 72.8 °F /  22.7 °C 66.3 °F /  19.1 °C 29.73in /  1006.7hPa Calm     80% 0.02in /  0.5mm
20:34 72.0 °F /  22.2 °C 65.5 °F /  18.6 °C 29.73in /  1006.7hPa Calm     80% 0.02in /  0.5mm
20:39 71.3 °F /  21.8 °C 65.2 °F /  18.4 °C 29.74in /  1007hPa Calm     81% 0.02in /  0.5mm
20:44 70.7 °F /  21.5 °C 64.9 °F /  18.3 °C 29.73in /  1006.7hPa Calm     82% 0.02in /  0.5mm
20:49 70.2 °F /  21.2 °C 64.5 °F /  18.1 °C 29.74in /  1007hPa Calm     82% 0.02in /  0.5mm
20:54 69.8 °F /  21 °C 64.4 °F /  18 °C 29.74in /  1007hPa Calm     83% 0.02in /  0.5mm
20:59 69.3 °F /  20.7 °C 64.3 °F /  17.9 °C 29.74in /  1007hPa Calm     84% 0.02in /  0.5mm
21:04 68.7 °F /  20.4 °C 64.0 °F /  17.8 °C 29.73in /  1006.7hPa Calm     85% 0.02in /  0.5mm
21:09 68.4 °F /  20.2 °C 63.7 °F /  17.6 °C 29.73in /  1006.7hPa Calm     85% 0.02in /  0.5mm
21:14 68.2 °F /  20.1 °C 63.9 °F /  17.7 °C 29.73in /  1006.7hPa Calm     86% 0.02in /  0.5mm
21:19 67.9 °F /  19.9 °C 63.6 °F /  17.6 °C 29.73in /  1006.7hPa Calm     86% 0.02in /  0.5mm
21:24 67.4 °F /  19.7 °C 63.1 °F /  17.3 °C 29.73in /  1006.7hPa Calm     86% 0.02in /  0.5mm
21:29 67.2 °F /  19.6 °C 63.2 °F /  17.3 °C 29.73in /  1006.7hPa Calm     87% 0.02in /  0.5mm
21:34 67.0 °F /  19.4 °C 63.3 °F /  17.4 °C 29.74in /  1007hPa Calm     88% 0.02in /  0.5mm
21:39 66.8 °F /  19.3 °C 63.1 °F /  17.3 °C 29.74in /  1007hPa Calm     88% 0.02in /  0.5mm
21:44 66.8 °F /  19.3 °C 63.5 °F /  17.5 °C 29.74in /  1007hPa Calm     89% 0.02in /  0.5mm
21:49 66.8 °F /  19.3 °C 63.5 °F /  17.5 °C 29.74in /  1007hPa Calm     89% 0.02in /  0.5mm
21:54 66.8 °F /  19.3 °C 63.8 °F /  17.7 °C 29.74in /  1007hPa Calm     90% 0.02in /  0.5mm
21:59 66.8 °F /  19.3 °C 63.8 °F /  17.7 °C 29.74in /  1007hPa Calm     90% 0.02in /  0.5mm
22:04 66.8 °F /  19.3 °C 63.8 °F /  17.7 °C 29.74in /  1007hPa Calm     90% 0.02in /  0.5mm
22:09 66.7 °F /  19.3 °C 63.7 °F /  17.6 °C 29.74in /  1007hPa Calm     90% 0.02in /  0.5mm
22:14 66.7 °F /  19.3 °C 63.7 °F /  17.6 °C 29.74in /  1007hPa Calm     90% 0.02in /  0.5mm
22:19 66.7 °F /  19.3 °C 64.0 °F /  17.8 °C 29.75in /  1007.3hPa Calm     91% 0.02in /  0.5mm
22:24 66.8 °F /  19.3 °C 64.1 °F /  17.8 °C 29.75in /  1007.3hPa Calm     91% 0.02in /  0.5mm
22:29 66.9 °F /  19.4 °C 64.2 °F /  17.9 °C 29.75in /  1007.3hPa Calm     91% 0.02in /  0.5mm
22:34 66.9 °F /  19.4 °C 64.2 °F /  17.9 °C 29.75in /  1007.3hPa Calm     91% 0.02in /  0.5mm
22:39 67.0 °F /  19.4 °C 64.6 °F /  18.1 °C 29.75in /  1007.3hPa Calm     92% 0.02in /  0.5mm
22:44 67.1 °F /  19.5 °C 64.7 °F /  18.2 °C 29.75in /  1007.3hPa Calm     92% 0.02in /  0.5mm
22:49 67.2 °F /  19.6 °C 64.8 °F /  18.2 °C 29.74in /  1007hPa Calm     92% 0.02in /  0.5mm
22:54 67.2 °F /  19.6 °C 64.8 °F /  18.2 °C 29.74in /  1007hPa Calm     92% 0.02in /  0.5mm
22:59 67.3 °F /  19.6 °C 64.9 °F /  18.3 °C 29.75in /  1007.3hPa Calm     92% 0.02in /  0.5mm
23:04 67.4 °F /  19.7 °C 65.0 °F /  18.3 °C 29.74in /  1007hPa Calm     92% 0.02in /  0.5mm
23:09 67.5 °F /  19.7 °C 65.1 °F /  18.4 °C 29.74in /  1007hPa Calm     92% 0.02in /  0.5mm
23:14 67.6 °F /  19.8 °C 65.2 °F /  18.4 °C 29.74in /  1007hPa Calm     92% 0.02in /  0.5mm
23:19 67.6 °F /  19.8 °C 65.2 °F /  18.4 °C 29.74in /  1007hPa Calm     92% 0.02in /  0.5mm
23:24 67.6 °F /  19.8 °C 65.2 °F /  18.4 °C 29.74in /  1007hPa Calm     92% 0.02in /  0.5mm
23:29 67.6 °F /  19.8 °C 65.2 °F /  18.4 °C 29.74in /  1007hPa Calm     92% 0.02in /  0.5mm
23:34 67.4 °F /  19.7 °C 65.0 °F /  18.3 °C 29.74in /  1007hPa Calm     92% 0.02in /  0.5mm
23:39 67.3 °F /  19.6 °C 64.9 °F /  18.3 °C 29.74in /  1007hPa Calm     92% 0.02in /  0.5mm
23:44 67.2 °F /  19.6 °C 64.8 °F /  18.2 °C 29.74in /  1007hPa Calm     92% 0.02in /  0.5mm
23:49 67.1 °F /  19.5 °C 64.7 °F /  18.2 °C 29.74in /  1007hPa Calm     92% 0.02in /  0.5mm
23:54 67.2 °F /  19.6 °C 64.8 °F /  18.2 °C 29.74in /  1007hPa Calm     92% 0.02in /  0.5mm
23:59 67.4 °F /  19.7 °C 64.7 °F /  18.2 °C 29.74in /  1007hPa Calm     91% 0.02in /  0.5mm
Westford Weather
Compliments of Weather Underground

 
 
Current Radar Loop:

Copyright © WestfordWeather.net 2007-2014. All rights reserved.